Terminal Aerodrome Forecast
Issued by NWS

Home | Current Version | Previous Version | Graphics & Text | Print | Product List | Glossary On
Versions: 1 2 3 4 5 6 7 8 9 10 11 12 13 14
000
FTUS43 KMPX 232341
TAFRWF
TAF
KRWF 232341Z 2400/2424 29010KT P6SM SKC
     FM240800 29007KT P6SM FEW050 SCT150
     FM242300 28005KT P6SM OVC020=

USA.gov is the U.S. government's official web portal to all federal, state and local government web resources and services.